Time;durP1;ratioP1;P1;durP2;ratioP2;P2;SDS_P1;SDS_P2;PMS_P1;PMS_P2;Temp;Humidity;BMP_temperature;BMP_pressure;BME280_temperature;BME280_humidity;BME280_pressure;Samples;Min_cycle;Max_cycle;Signal;HPM_P1;HPM_P2
2021/01/31 00:00:30;;;;;;;2.22;2.13;;;5.40;1.00;;;;;;5046069;28;20207;-75
2021/01/31 00:02:59;;;;;;;2.00;1.90;;;5.40;1.00;;;;;;5045717;28;20227;-73
2021/01/31 00:05:26;;;;;;;1.83;1.73;;;5.40;1.00;;;;;;5045339;28;20211;-74
2021/01/31 00:07:54;;;;;;;2.33;2.10;;;5.30;1.00;;;;;;5048438;28;20822;-74
2021/01/31 00:10:25;;;;;;;2.30;2.20;;;5.20;1.00;;;;;;5046659;28;20621;-74
2021/01/31 00:12:54;;;;;;;2.22;2.13;;;5.30;1.00;;;;;;5045304;28;20266;-75
2021/01/31 00:15:24;;;;;;;1.88;1.77;;;5.30;1.00;;;;;;5045000;28;20219;-74
2021/01/31 00:17:51;;;;;;;2.10;1.90;;;5.20;1.00;;;;;;5048727;28;20244;-74
2021/01/31 00:20:20;;;;;;;1.77;1.67;;;5.10;1.00;;;;;;5045245;28;20220;-74
2021/01/31 00:22:47;;;;;;;1.67;1.58;;;5.00;1.00;;;;;;5046758;28;20281;-75
2021/01/31 00:25:16;;;;;;;1.52;1.42;;;5.00;1.00;;;;;;5043122;28;20214;-74
2021/01/31 00:27:45;;;;;;;2.13;2.03;;;5.00;1.00;;;;;;5045648;28;21006;-74
2021/01/31 00:30:17;;;;;;;2.17;2.03;;;5.00;1.00;;;;;;5045540;28;20283;-74
2021/01/31 00:32:44;;;;;;;1.70;1.60;;;4.90;1.00;;;;;;5043477;28;20265;-74
2021/01/31 00:35:12;;;;;;;1.90;1.80;;;4.90;1.00;;;;;;5045986;28;20220;-74
2021/01/31 00:37:39;;;;;;;2.10;1.90;;;4.90;1.00;;;;;;5046505;28;20328;-74
2021/01/31 00:40:08;;;;;;;33.70;14.23;;;4.90;1.00;;;;;;5043046;28;20219;-75
2021/01/31 00:42:35;;;;;;;5.90;3.50;;;4.90;1.00;;;;;;5046124;28;20645;-75
2021/01/31 00:45:05;;;;;;;2.58;2.38;;;4.90;1.00;;;;;;5047024;28;20205;-74
2021/01/31 00:47:33;;;;;;;1.80;1.70;;;4.90;1.00;;;;;;5046860;28;20240;-74
2021/01/31 00:50:00;;;;;;;2.23;2.03;;;4.90;1.00;;;;;;5042104;28;20216;-74
2021/01/31 00:52:27;;;;;;;2.72;2.15;;;4.90;1.00;;;;;;5047506;28;20524;-73
2021/01/31 00:54:54;;;;;;;2.90;2.70;;;4.80;1.00;;;;;;5047455;28;20203;-73
2021/01/31 00:57:21;;;;;;;2.40;2.20;;;4.90;1.00;;;;;;5038568;28;20289;-73
2021/01/31 00:59:48;;;;;;;2.42;2.22;;;4.90;1.00;;;;;;5031379;28;20219;-73
2021/01/31 01:02:19;;;;;;;2.97;2.78;;;4.80;1.00;;;;;;5035379;28;21183;-74
2021/01/31 01:04:48;;;;;;;2.50;2.30;;;4.80;1.00;;;;;;5045491;28;20719;-73
2021/01/31 01:07:16;;;;;;;2.80;2.60;;;4.80;1.00;;;;;;5046393;28;20263;-74
2021/01/31 01:09:44;;;;;;;3.20;3.00;;;4.80;1.00;;;;;;5040174;28;20266;-73
2021/01/31 01:12:11;;;;;;;2.65;2.45;;;4.70;1.00;;;;;;5046663;28;20273;-74
2021/01/31 01:14:38;;;;;;;2.97;2.70;;;4.70;1.00;;;;;;5044086;28;20215;-73
2021/01/31 01:17:06;;;;;;;3.00;2.80;;;4.70;1.00;;;;;;5046359;28;20224;-73
2021/01/31 01:19:34;;;;;;;2.35;2.20;;;4.70;1.00;;;;;;5043082;28;20579;-72
2021/01/31 01:22:01;;;;;;;2.33;2.13;;;4.70;1.00;;;;;;5047668;28;20207;-73
2021/01/31 01:24:28;;;;;;;2.60;2.50;;;4.70;1.00;;;;;;5045785;28;20290;-73
2021/01/31 01:26:55;;;;;;;2.42;2.22;;;4.80;1.00;;;;;;5040964;28;20221;-74
2021/01/31 01:29:22;;;;;;;2.65;2.45;;;4.80;1.00;;;;;;5043945;28;20953;-73
2021/01/31 01:31:49;;;;;;;3.15;2.85;;;4.90;1.00;;;;;;5045862;28;20229;-73
2021/01/31 01:34:17;;;;;;;2.63;2.42;;;4.90;1.00;;;;;;5046145;28;20214;-73
2021/01/31 01:36:45;;;;;;;2.95;2.45;;;4.90;1.00;;;;;;5045049;28;20214;-73
2021/01/31 01:39:12;;;;;;;4.72;4.00;;;4.80;1.00;;;;;;5040092;28;20217;-74
2021/01/31 01:41:41;;;;;;;4.70;3.45;;;4.80;1.00;;;;;;5045642;28;20220;-74
2021/01/31 01:44:09;;;;;;;3.50;3.20;;;4.80;1.00;;;;;;5044224;28;20222;-73
2021/01/31 01:46:43;;;;;;;3.72;3.42;;;4.90;1.00;;;;;;5044761;28;20208;-74
2021/01/31 01:49:19;;;;;;;3.05;2.80;;;4.80;1.00;;;;;;5046506;28;20264;-74
2021/01/31 01:51:52;;;;;;;3.15;2.95;;;4.80;1.00;;;;;;5040216;28;20709;-74
2021/01/31 01:54:25;;;;;;;3.38;3.10;;;4.80;1.00;;;;;;5040422;28;20204;-73
2021/01/31 01:56:58;;;;;;;4.40;3.90;;;4.90;1.00;;;;;;5046892;28;20210;-73
2021/01/31 01:59:27;;;;;;;3.50;3.30;;;4.90;1.00;;;;;;5045161;28;20274;-73
2021/01/31 02:02:05;;;;;;;4.50;4.10;;;4.90;1.00;;;;;;5042637;28;20223;-73
2021/01/31 02:04:32;;;;;;;3.78;3.47;;;4.90;1.00;;;;;;5046861;28;20292;-72
2021/01/31 02:07:01;;;;;;;4.97;4.47;;;4.90;1.00;;;;;;5044503;28;20962;-73
2021/01/31 02:09:28;;;;;;;4.95;4.45;;;4.90;1.00;;;;;;5045402;28;20214;-74
2021/01/31 02:12:00;;;;;;;4.65;4.13;;;4.80;1.00;;;;;;5034974;28;20646;-73
2021/01/31 02:14:28;;;;;;;5.28;4.78;;;4.90;1.00;;;;;;5042428;28;21079;-72
2021/01/31 02:16:58;;;;;;;5.07;4.57;;;4.90;1.00;;;;;;5042385;28;20207;-72
2021/01/31 02:19:58;;;;;;;5.22;4.68;;;4.90;1.00;;;;;;5046006;28;20587;-73
2021/01/31 02:23:11;;;;;;;5.25;4.75;;;5.00;1.00;;;;;;5026431;28;20237;-74
2021/01/31 02:25:58;;;;;;;5.43;4.93;;;4.90;1.00;;;;;;5021978;28;20287;-74
2021/01/31 02:28:50;;;;;;;4.95;4.50;;;4.90;1.00;;;;;;5047871;28;20234;-75
2021/01/31 02:31:42;;;;;;;6.07;4.78;;;4.90;1.00;;;;;;5038322;28;20256;-74
2021/01/31 02:34:16;;;;;;;5.97;5.30;;;4.90;1.00;;;;;;5027793;28;20776;-74
2021/01/31 02:36:55;;;;;;;5.10;4.60;;;4.70;1.00;;;;;;5047086;28;20218;-75
2021/01/31 02:39:35;;;;;;;5.65;5.15;;;4.70;1.00;;;;;;5048826;28;20213;-74
2021/01/31 02:42:09;;;;;;;7.13;5.47;;;4.80;1.00;;;;;;5045868;28;20218;-75
2021/01/31 02:44:40;;;;;;;6.05;5.47;;;4.80;1.00;;;;;;5045043;28;20234;-75
2021/01/31 02:47:14;;;;;;;7.05;6.20;;;4.80;1.00;;;;;;5045443;28;20226;-75
2021/01/31 02:49:49;;;;;;;6.45;5.85;;;4.80;1.00;;;;;;5041336;28;20581;-75
2021/01/31 02:52:21;;;;;;;6.57;5.97;;;4.80;1.00;;;;;;5038262;28;20529;-74
2021/01/31 02:54:53;;;;;;;6.00;5.40;;;4.80;1.00;;;;;;5043451;28;20235;-75
2021/01/31 02:57:24;;;;;;;40.38;21.05;;;4.80;1.00;;;;;;5046285;28;20276;-75
2021/01/31 02:59:59;;;;;;;7.75;6.90;;;4.70;1.00;;;;;;5046268;28;20220;-75
2021/01/31 03:02:32;;;;;;;8.57;7.18;;;4.70;1.00;;;;;;5040792;28;20208;-75
2021/01/31 03:05:07;;;;;;;7.28;6.57;;;4.60;1.00;;;;;;5046545;28;20213;-75
2021/01/31 03:07:39;;;;;;;7.20;6.07;;;4.60;1.00;;;;;;5045285;28;20225;-75
2021/01/31 03:10:10;;;;;;;6.65;5.65;;;4.60;1.00;;;;;;5047496;28;20245;-75
2021/01/31 03:12:42;;;;;;;7.75;6.95;;;4.60;1.00;;;;;;5047138;28;20231;-75
2021/01/31 03:15:14;;;;;;;6.35;5.35;;;4.60;1.00;;;;;;5040961;28;20211;-74
2021/01/31 03:17:46;;;;;;;6.88;6.28;;;4.60;1.00;;;;;;5045423;28;20234;-74
2021/01/31 03:20:18;;;;;;;6.78;5.68;;;4.50;1.00;;;;;;5036544;28;20627;-74
2021/01/31 03:22:52;;;;;;;6.63;5.75;;;4.40;1.00;;;;;;5035680;28;20582;-73
2021/01/31 03:25:24;;;;;;;7.15;6.20;;;4.40;1.00;;;;;;5045841;28;20741;-73
2021/01/31 03:27:52;;;;;;;7.35;5.60;;;4.50;1.00;;;;;;5044275;28;20293;-73
2021/01/31 03:30:19;;;;;;;6.53;5.90;;;4.40;1.00;;;;;;5041744;28;20277;-73
2021/01/31 03:32:53;;;;;;;8.35;7.30;;;4.30;1.00;;;;;;5041350;28;20242;-72
2021/01/31 03:35:25;;;;;;;8.13;7.32;;;4.40;1.00;;;;;;5047078;28;20705;-72
2021/01/31 03:37:55;;;;;;;6.80;6.10;;;4.30;1.00;;;;;;5039500;28;20232;-72
2021/01/31 03:40:24;;;;;;;7.07;6.38;;;4.40;1.00;;;;;;5041733;28;20219;-72
2021/01/31 03:42:54;;;;;;;8.32;7.30;;;4.40;1.00;;;;;;5045703;28;20737;-72
2021/01/31 03:45:27;;;;;;;8.43;6.75;;;4.40;1.00;;;;;;5045699;28;20206;-72
2021/01/31 03:48:01;;;;;;;8.18;6.45;;;4.30;1.00;;;;;;5047302;28;20714;-72
2021/01/31 03:50:30;;;;;;;7.53;6.63;;;4.30;1.00;;;;;;5048031;28;20209;-72
2021/01/31 03:52:59;;;;;;;7.05;6.35;;;4.20;1.00;;;;;;5044067;28;20210;-71
2021/01/31 03:55:26;;;;;;;7.13;6.13;;;4.00;1.00;;;;;;5045619;28;20210;-72
2021/01/31 03:57:57;;;;;;;8.10;7.30;;;4.20;1.00;;;;;;5045799;28;20281;-73
2021/01/31 04:00:26;;;;;;;7.78;7.07;;;4.20;1.00;;;;;;5046589;28;20268;-72
2021/01/31 04:02:57;;;;;;;9.80;7.22;;;4.00;1.00;;;;;;5037633;28;20229;-72
2021/01/31 04:05:28;;;;;;;7.65;6.50;;;4.00;1.00;;;;;;5046631;28;20282;-72
2021/01/31 04:07:59;;;;;;;8.35;7.47;;;4.00;1.00;;;;;;5046801;28;20225;-72
2021/01/31 04:10:26;;;;;;;9.35;7.43;;;4.10;1.00;;;;;;5047360;28;20206;-73
2021/01/31 04:12:57;;;;;;;8.65;6.85;;;4.20;1.00;;;;;;5046791;28;20226;-73
2021/01/31 04:15:34;;;;;;;8.73;7.80;;;4.20;1.00;;;;;;5047774;28;20210;-73
2021/01/31 04:18:01;;;;;;;7.25;6.55;;;4.30;1.00;;;;;;5047702;28;20279;-73
2021/01/31 04:20:28;;;;;;;7.28;6.30;;;4.30;1.00;;;;;;5046836;28;20329;-73
2021/01/31 04:22:57;;;;;;;8.35;7.00;;;4.30;1.00;;;;;;5045130;28;20662;-73
2021/01/31 04:25:24;;;;;;;7.10;5.78;;;4.20;1.00;;;;;;5048086;28;20209;-73
2021/01/31 04:27:51;;;;;;;7.93;7.13;;;4.20;1.00;;;;;;5048228;28;20795;-73
2021/01/31 04:30:19;;;;;;;8.15;6.82;;;4.30;1.00;;;;;;5047064;28;20392;-73
2021/01/31 04:32:46;;;;;;;8.57;6.88;;;4.30;1.00;;;;;;5039692;28;20212;-73
2021/01/31 04:35:15;;;;;;;7.65;6.60;;;4.30;1.00;;;;;;5046654;28;20236;-73
2021/01/31 04:37:42;;;;;;;8.07;7.03;;;4.30;1.00;;;;;;5045714;28;20237;-74
2021/01/31 04:40:15;;;;;;;7.50;6.72;;;4.30;1.00;;;;;;5048119;28;20693;-72
2021/01/31 04:42:42;;;;;;;8.77;6.60;;;4.30;1.00;;;;;;5054045;28;20223;-73
2021/01/31 04:45:11;;;;;;;7.55;6.10;;;4.30;1.00;;;;;;5047949;28;20234;-73
2021/01/31 04:47:53;;;;;;;7.32;6.55;;;4.30;1.00;;;;;;5045503;28;20241;-73
2021/01/31 04:50:27;;;;;;;7.22;6.32;;;4.30;1.00;;;;;;5039999;28;20255;-73
2021/01/31 04:53:14;;;;;;;7.47;6.70;;;4.30;1.00;;;;;;5044651;28;20209;-73
2021/01/31 04:56:11;;;;;;;8.50;7.03;;;4.30;1.00;;;;;;5043304;28;20290;-73
2021/01/31 04:58:45;;;;;;;7.50;6.60;;;4.20;1.00;;;;;;5040990;28;20238;-73
2021/01/31 05:01:20;;;;;;;9.13;6.25;;;4.10;1.00;;;;;;5044236;28;20206;-73
2021/01/31 05:03:53;;;;;;;7.80;7.00;;;4.20;1.00;;;;;;5042898;28;20230;-73
2021/01/31 05:06:22;;;;;;;6.85;6.22;;;4.20;1.00;;;;;;5042089;28;20204;-73
2021/01/31 05:08:49;;;;;;;8.85;6.20;;;4.10;1.00;;;;;;5046924;28;20230;-74
2021/01/31 05:11:24;;;;;;;7.85;7.05;;;4.20;1.00;;;;;;5045460;28;20212;-73
2021/01/31 05:13:59;;;;;;;8.43;7.38;;;4.20;1.00;;;;;;5042462;28;20309;-73
2021/01/31 05:16:27;;;;;;;9.80;6.85;;;4.30;1.00;;;;;;5041359;28;20592;-73
2021/01/31 05:18:58;;;;;;;9.18;7.05;;;4.30;1.00;;;;;;5046897;28;20296;-73
2021/01/31 05:21:30;;;;;;;8.00;6.85;;;4.30;1.00;;;;;;5046306;28;20209;-73
2021/01/31 05:24:00;;;;;;;12.60;8.63;;;4.20;1.00;;;;;;5046593;28;20221;-73
2021/01/31 05:26:31;;;;;;;9.63;7.63;;;4.20;1.00;;;;;;5040179;28;20206;-73
2021/01/31 05:29:01;;;;;;;8.05;7.25;;;4.30;1.00;;;;;;5046416;28;20285;-72
2021/01/31 05:31:33;;;;;;;7.93;7.13;;;4.30;1.00;;;;;;5043584;28;20787;-73
2021/01/31 05:34:00;;;;;;;10.07;7.40;;;4.30;1.00;;;;;;5043543;28;20218;-72
2021/01/31 05:36:29;;;;;;;8.50;7.70;;;4.20;1.00;;;;;;5045999;28;20226;-72
2021/01/31 05:38:57;;;;;;;10.75;7.55;;;4.30;1.00;;;;;;5045575;28;20285;-73
2021/01/31 05:41:47;;;;;;;9.27;7.25;;;4.10;1.00;;;;;;5043863;28;20697;-73
2021/01/31 05:44:25;;;;;;;10.73;6.65;;;3.70;1.00;;;;;;5046982;28;20782;-73
2021/01/31 05:46:58;;;;;;;8.35;6.75;;;3.70;1.00;;;;;;5046620;28;20300;-73
2021/01/31 05:49:52;;;;;;;7.65;6.28;;;3.60;5.60;;;;;;5043619;28;20300;-73
2021/01/31 05:52:33;;;;;;;8.93;7.15;;;3.50;22.10;;;;;;5027980;28;20219;-74
2021/01/31 05:55:01;;;;;;;8.77;6.90;;;3.50;19.00;;;;;;5046270;28;20675;-72
2021/01/31 05:57:31;;;;;;;8.80;7.38;;;3.50;33.30;;;;;;5051519;28;20309;-73
2021/01/31 06:00:01;;;;;;;10.95;7.70;;;3.60;24.60;;;;;;5047633;28;20275;-73
2021/01/31 06:02:30;;;;;;;9.02;6.47;;;3.70;24.10;;;;;;5044619;28;20332;-73
2021/01/31 06:05:14;;;;;;;10.77;7.90;;;3.70;18.70;;;;;;5049255;28;20238;-73
2021/01/31 06:07:44;;;;;;;10.85;8.30;;;3.90;14.30;;;;;;5050169;28;20234;-73
2021/01/31 06:10:15;;;;;;;8.57;7.68;;;4.00;9.60;;;;;;5047105;28;20235;-73
2021/01/31 06:12:45;;;;;;;12.52;9.07;;;4.10;3.50;;;;;;5048268;28;20254;-73
2021/01/31 06:15:24;;;;;;;11.38;8.88;;;4.20;1.00;;;;;;5049258;28;20207;-73
2021/01/31 06:17:57;;;;;;;12.85;9.23;;;4.20;1.00;;;;;;5049268;28;20245;-73
2021/01/31 06:20:30;;;;;;;10.20;7.40;;;4.30;1.00;;;;;;5046137;28;20222;-73
2021/01/31 06:22:57;;;;;;;12.50;8.45;;;4.40;1.00;;;;;;5048431;28;20242;-73
2021/01/31 06:25:37;;;;;;;10.32;9.20;;;4.40;1.00;;;;;;5041899;28;20229;-73
2021/01/31 06:28:20;;;;;;;11.95;8.55;;;4.50;1.00;;;;;;5048324;28;20242;-73
2021/01/31 06:30:55;;;;;;;11.32;7.95;;;4.50;1.00;;;;;;5040472;28;20248;-73
2021/01/31 06:33:22;;;;;;;10.55;8.02;;;4.40;1.00;;;;;;5041748;28;20218;-73
2021/01/31 06:35:58;;;;;;;12.63;9.35;;;4.50;1.00;;;;;;5050292;28;20216;-73
2021/01/31 06:38:32;;;;;;;11.23;8.57;;;4.50;1.00;;;;;;5043143;28;20318;-73
2021/01/31 06:41:14;;;;;;;10.82;8.18;;;4.40;1.00;;;;;;5048948;28;20221;-72
2021/01/31 06:43:58;;;;;;;12.63;9.30;;;4.40;1.00;;;;;;5050122;28;20236;-73
2021/01/31 06:46:33;;;;;;;13.43;11.00;;;4.40;1.00;;;;;;5049826;28;20251;-73
2021/01/31 06:49:15;;;;;;;11.77;9.27;;;4.40;1.00;;;;;;5041402;28;20245;-72
2021/01/31 06:51:57;;;;;;;11.63;8.70;;;4.40;1.00;;;;;;5048580;28;20332;-72
2021/01/31 06:55:08;;;;;;;12.23;9.30;;;4.40;1.00;;;;;;5047371;28;20260;-72
2021/01/31 06:58:02;;;;;;;13.95;8.90;;;4.40;1.00;;;;;;5001282;28;20265;-73
2021/01/31 07:01:02;;;;;;;11.30;8.65;;;4.30;1.00;;;;;;4999313;28;20221;-73
2021/01/31 07:03:59;;;;;;;14.55;10.05;;;4.30;1.00;;;;;;5038100;28;20244;-73
2021/01/31 07:07:08;;;;;;;11.43;8.75;;;4.40;1.00;;;;;;5044999;28;20654;-73
2021/01/31 07:09:54;;;;;;;13.63;12.10;;;4.30;1.00;;;;;;5044716;28;20472;-74
2021/01/31 07:12:25;;;;;;;14.32;10.10;;;4.30;1.00;;;;;;5047351;28;20229;-74
2021/01/31 07:14:58;;;;;;;12.38;9.68;;;4.30;1.00;;;;;;5048470;28;20711;-73
2021/01/31 07:17:32;;;;;;;14.48;12.10;;;4.20;1.00;;;;;;5043703;28;20481;-72
2021/01/31 07:20:06;;;;;;;13.38;10.20;;;4.20;1.00;;;;;;5046996;28;20212;-73
2021/01/31 07:22:40;;;;;;;12.07;9.70;;;4.30;1.00;;;;;;5040316;28;20230;-73
2021/01/31 07:25:13;;;;;;;14.50;10.00;;;4.40;1.00;;;;;;5035053;28;20230;-73
2021/01/31 07:27:47;;;;;;;13.80;10.02;;;4.40;1.00;;;;;;5048488;28;20257;-73
2021/01/31 07:30:20;;;;;;;12.10;9.18;;;4.50;1.00;;;;;;5046116;28;20206;-73
2021/01/31 07:33:05;;;;;;;11.75;8.77;;;4.50;1.00;;;;;;5039288;28;20239;-74
2021/01/31 07:35:40;;;;;;;13.13;9.32;;;4.50;1.00;;;;;;5047387;28;20722;-74
2021/01/31 07:38:14;;;;;;;10.98;9.38;;;4.60;1.00;;;;;;5047504;28;20242;-73
2021/01/31 07:40:43;;;;;;;11.05;9.00;;;4.40;1.00;;;;;;5047668;28;20245;-74
2021/01/31 07:43:14;;;;;;;10.68;8.93;;;4.40;1.00;;;;;;5046316;28;20480;-74
2021/01/31 07:45:43;;;;;;;11.68;9.00;;;4.40;1.00;;;;;;5041959;28;20212;-75
2021/01/31 07:48:53;;;;;;;13.90;10.48;;;4.40;1.00;;;;;;5048728;28;20248;-76
2021/01/31 07:51:59;;;;;;;12.20;8.98;;;4.40;1.00;;;;;;5045955;28;20269;-74
2021/01/31 07:54:27;;;;;;;12.27;9.32;;;4.40;1.00;;;;;;5040342;28;20785;-74
2021/01/31 07:56:56;;;;;;;11.57;8.82;;;4.40;1.00;;;;;;5046462;28;20214;-73
2021/01/31 07:59:26;;;;;;;10.80;9.05;;;4.30;1.00;;;;;;5046049;28;20712;-74
2021/01/31 08:01:54;;;;;;;12.95;10.18;;;4.40;1.00;;;;;;5033940;28;21085;-75
2021/01/31 08:04:26;;;;;;;15.23;9.65;;;4.40;1.00;;;;;;5048169;28;20235;-74
2021/01/31 08:06:57;;;;;;;10.07;8.93;;;4.40;1.00;;;;;;5047607;28;20219;-74
2021/01/31 08:09:53;;;;;;;11.57;8.60;;;4.50;1.00;;;;;;5041477;28;20209;-75
2021/01/31 08:12:20;;;;;;;13.05;9.00;;;4.40;1.00;;;;;;5044760;28;20270;-75
2021/01/31 08:15:10;;;;;;;8.55;7.75;;;4.30;1.00;;;;;;5045484;28;20238;-73
2021/01/31 08:17:48;;;;;;;11.60;7.72;;;4.40;1.00;;;;;;5039572;28;20233;-74
2021/01/31 08:20:21;;;;;;;12.70;9.07;;;4.40;1.00;;;;;;5041150;28;20210;-72
2021/01/31 08:22:49;;;;;;;11.48;8.80;;;4.40;1.00;;;;;;5047394;28;20218;-72
2021/01/31 08:25:25;;;;;;;11.98;7.85;;;4.40;1.00;;;;;;5040751;28;20227;-72
2021/01/31 08:27:56;;;;;;;9.32;7.95;;;4.30;1.00;;;;;;5045425;28;20237;-73
2021/01/31 08:30:30;;;;;;;12.45;8.55;;;4.20;1.00;;;;;;5046909;28;20219;-73
2021/01/31 08:33:26;;;;;;;9.45;8.27;;;4.30;1.00;;;;;;5047835;28;20226;-74
2021/01/31 08:36:03;;;;;;;9.15;8.05;;;4.40;1.00;;;;;;5046387;28;20622;-74
2021/01/31 08:38:48;;;;;;;8.35;6.85;;;4.40;1.00;;;;;;5038011;28;20234;-73
2021/01/31 08:41:41;;;;;;;9.25;8.13;;;4.30;1.00;;;;;;5047542;28;20282;-73
2021/01/31 08:44:39;;;;;;;12.13;8.73;;;3.90;1.00;;;;;;5046481;28;20969;-74
2021/01/31 08:47:08;;;;;;;10.23;8.63;;;3.80;1.00;;;;;;5044057;28;20844;-74
2021/01/31 08:49:35;;;;;;;9.75;7.75;;;3.90;1.00;;;;;;5045403;28;20618;-73
2021/01/31 08:52:06;;;;;;;8.93;7.18;;;4.10;1.00;;;;;;5048555;28;20218;-75
2021/01/31 08:54:34;;;;;;;10.45;7.63;;;4.20;1.00;;;;;;5041602;28;20214;-74
2021/01/31 08:57:02;;;;;;;10.23;7.22;;;4.20;1.00;;;;;;5042816;28;20235;-75
2021/01/31 08:59:31;;;;;;;10.35;8.40;;;4.40;1.00;;;;;;5046216;28;20219;-74
2021/01/31 09:02:25;;;;;;;9.07;7.40;;;4.50;1.00;;;;;;5046638;28;20222;-74
2021/01/31 09:04:55;;;;;;;9.52;8.25;;;4.30;1.00;;;;;;5030048;28;20250;-75
2021/01/31 09:07:27;;;;;;;10.13;9.02;;;4.40;1.00;;;;;;5045094;28;20232;-73
2021/01/31 09:09:58;;;;;;;11.07;8.55;;;4.30;1.00;;;;;;5045489;28;20271;-73
2021/01/31 09:12:26;;;;;;;11.82;9.23;;;4.50;1.00;;;;;;5045539;28;20218;-73
2021/01/31 09:15:09;;;;;;;9.15;8.02;;;4.60;1.00;;;;;;5042307;28;20260;-75
2021/01/31 09:17:36;;;;;;;9.02;7.00;;;4.80;1.00;;;;;;5044219;28;20228;-73
2021/01/31 09:20:13;;;;;;;11.65;7.72;;;4.70;1.00;;;;;;5046407;28;20215;-73
2021/01/31 09:22:44;;;;;;;10.10;7.70;;;4.80;1.00;;;;;;5046284;28;20294;-74
2021/01/31 09:25:15;;;;;;;8.05;7.25;;;4.90;1.00;;;;;;5041682;28;20295;-74
2021/01/31 09:27:55;;;;;;;9.95;8.20;;;4.90;1.00;;;;;;5043964;28;20462;-74
2021/01/31 09:30:22;;;;;;;9.10;8.20;;;5.10;1.00;;;;;;5046321;28;20210;-74
2021/01/31 09:32:53;;;;;;;9.50;8.60;;;5.10;1.00;;;;;;5037316;28;20491;-74
2021/01/31 09:35:25;;;;;;;7.82;7.07;;;5.00;1.00;;;;;;5043167;28;20200;-74
2021/01/31 09:37:54;;;;;;;8.80;7.55;;;5.20;1.00;;;;;;5045328;28;20235;-73
2021/01/31 09:40:22;;;;;;;7.32;6.28;;;5.20;1.00;;;;;;5038341;28;20213;-75
2021/01/31 09:42:49;;;;;;;8.52;6.82;;;5.10;1.00;;;;;;5038794;28;20211;-74
2021/01/31 09:45:35;;;;;;;10.32;6.60;;;5.10;1.00;;;;;;5037744;28;20248;-77
2021/01/31 09:48:05;;;;;;;8.57;6.65;;;5.10;1.00;;;;;;5043976;28;20282;-75
2021/01/31 09:50:33;;;;;;;7.18;6.38;;;4.90;1.00;;;;;;5039453;28;20266;-77
2021/01/31 09:53:02;;;;;;;8.70;6.32;;;5.00;1.00;;;;;;5035839;28;20739;-75
2021/01/31 09:55:39;;;;;;;7.18;6.45;;;5.10;1.00;;;;;;5037456;28;20292;-77
2021/01/31 09:58:18;;;;;;;7.15;6.45;;;5.10;1.00;;;;;;5030366;28;20225;-74
2021/01/31 10:00:45;;;;;;;8.30;6.53;;;5.20;1.00;;;;;;5039091;28;20217;-74
2021/01/31 10:03:25;;;;;;;8.27;6.90;;;5.20;1.00;;;;;;5033460;28;20555;-74
2021/01/31 10:06:07;;;;;;;6.90;6.20;;;5.30;1.00;;;;;;5039586;28;20231;-73
2021/01/31 10:08:38;;;;;;;7.50;6.80;;;5.10;1.00;;;;;;5043071;28;21089;-73
2021/01/31 10:11:28;;;;;;;7.32;6.57;;;5.20;1.00;;;;;;5031030;28;20213;-74
2021/01/31 10:13:55;;;;;;;6.88;6.18;;;5.20;1.00;;;;;;5038478;28;20204;-74
2021/01/31 10:16:25;;;;;;;6.78;6.15;;;5.20;1.00;;;;;;5039917;28;20627;-73
2021/01/31 10:18:52;;;;;;;7.07;6.45;;;5.20;1.00;;;;;;5041510;28;20242;-73
2021/01/31 10:21:28;;;;;;;7.00;6.35;;;5.20;1.00;;;;;;5024846;28;20225;-74
2021/01/31 10:24:06;;;;;;;7.82;6.70;;;5.10;1.00;;;;;;5043714;28;20211;-74
2021/01/31 10:26:34;;;;;;;7.70;7.00;;;5.00;1.00;;;;;;5040417;28;20236;-74
2021/01/31 10:29:03;;;;;;;7.85;7.05;;;5.10;1.00;;;;;;5046368;28;20503;-73
2021/01/31 10:31:34;;;;;;;7.97;6.90;;;5.30;1.00;;;;;;5037227;28;20208;-74
2021/01/31 10:34:03;;;;;;;7.22;6.55;;;5.20;1.00;;;;;;5043580;28;20198;-74
2021/01/31 10:36:37;;;;;;;6.55;5.60;;;5.10;1.00;;;;;;5044148;28;20220;-74
2021/01/31 10:39:25;;;;;;;7.00;6.30;;;5.10;1.00;;;;;;5045572;28;20237;-73
2021/01/31 10:41:55;;;;;;;7.17;6.07;;;5.30;1.00;;;;;;5047667;28;20222;-74
2021/01/31 10:44:25;;;;;;;7.57;6.63;;;5.50;1.00;;;;;;5050539;28;20995;-73
2021/01/31 10:46:53;;;;;;;8.37;6.20;;;5.40;1.00;;;;;;5048657;28;20900;-74
2021/01/31 10:49:21;;;;;;;8.07;7.23;;;5.70;1.00;;;;;;5038008;28;20462;-73
2021/01/31 10:51:48;;;;;;;6.70;6.10;;;5.80;1.00;;;;;;5043661;28;20526;-72
2021/01/31 10:54:17;;;;;;;7.27;6.60;;;5.70;1.00;;;;;;5047874;28;20474;-74
2021/01/31 10:56:45;;;;;;;10.37;6.73;;;5.40;1.00;;;;;;5041610;28;20469;-73
2021/01/31 10:59:13;;;;;;;7.17;6.47;;;5.10;1.00;;;;;;5045779;28;21021;-74
2021/01/31 11:01:43;;;;;;;8.77;7.20;;;5.10;1.00;;;;;;5047273;28;20476;-74
2021/01/31 11:04:13;;;;;;;8.73;6.93;;;5.10;1.00;;;;;;5046382;28;20528;-74
2021/01/31 11:06:45;;;;;;;6.47;5.97;;;5.30;1.00;;;;;;5048816;28;20479;-73
2021/01/31 11:09:17;;;;;;;8.33;7.27;;;5.10;1.00;;;;;;5042917;28;20474;-74
2021/01/31 11:11:47;;;;;;;7.80;7.00;;;5.10;1.00;;;;;;5046261;28;20490;-74
2021/01/31 11:14:14;;;;;;;9.57;8.10;;;5.10;1.00;;;;;;5044068;28;20462;-73
2021/01/31 11:16:41;;;;;;;9.77;7.45;;;5.10;1.00;;;;;;5048220;28;21472;-72
2021/01/31 11:19:08;;;;;;;9.53;8.40;;;4.90;1.00;;;;;;5047563;28;20224;-73
2021/01/31 11:21:35;;;;;;;11.07;8.80;;;4.90;1.00;;;;;;5048749;28;20507;-74
2021/01/31 11:24:03;;;;;;;8.53;7.63;;;4.70;1.00;;;;;;5048877;28;20498;-73
2021/01/31 11:26:30;;;;;;;8.90;7.50;;;4.50;1.00;;;;;;5047615;28;20468;-74
2021/01/31 11:28:58;;;;;;;10.23;8.37;;;4.50;1.00;;;;;;5047486;28;20569;-74
2021/01/31 11:31:25;;;;;;;11.30;8.63;;;4.40;1.00;;;;;;5047979;28;20470;-73
2021/01/31 11:33:55;;;;;;;9.17;7.73;;;4.50;1.00;;;;;;5046475;28;20239;-74
2021/01/31 11:36:22;;;;;;;8.37;7.53;;;4.70;1.00;;;;;;5047834;28;20482;-74
2021/01/31 11:38:49;;;;;;;9.00;6.77;;;4.80;1.00;;;;;;5046520;28;20493;-73
2021/01/31 11:41:18;;;;;;;9.80;7.43;;;4.60;1.00;;;;;;5046131;28;20478;-74
2021/01/31 11:43:45;;;;;;;8.93;7.80;;;4.50;1.00;;;;;;5043388;28;20228;-74
2021/01/31 11:46:13;;;;;;;9.17;7.07;;;4.40;1.00;;;;;;5048447;28;20492;-73
2021/01/31 11:48:40;;;;;;;11.38;9.27;;;4.50;5.80;;;;;;5047147;28;20493;-74
2021/01/31 11:51:07;;;;;;;8.60;7.50;;;4.60;1.20;;;;;;5041342;28;20211;-72
2021/01/31 11:53:36;;;;;;;12.60;9.73;;;4.80;1.00;;;;;;5046309;28;20407;-73
2021/01/31 11:56:04;;;;;;;10.40;8.77;;;5.00;1.00;;;;;;5048048;28;20818;-73
2021/01/31 11:58:31;;;;;;;9.93;8.93;;;4.80;1.00;;;;;;5046674;28;20549;-73
2021/01/31 12:00:58;;;;;;;10.93;8.20;;;4.50;26.90;;;;;;5048673;28;20480;-72
2021/01/31 12:03:26;;;;;;;10.15;8.20;;;4.40;53.50;;;;;;5048658;28;20863;-72
2021/01/31 12:05:54;;;;;;;9.52;8.20;;;4.40;61.30;;;;;;5048671;28;20237;-73
2021/01/31 12:08:21;;;;;;;10.77;8.77;;;4.40;66.90;;;;;;5048214;28;20226;-73
2021/01/31 12:10:49;;;;;;;10.40;8.60;;;4.40;46.60;;;;;;5047381;28;20498;-73
2021/01/31 12:13:17;;;;;;;10.33;8.37;;;4.60;52.30;;;;;;5048323;28;20205;-73
2021/01/31 12:15:45;;;;;;;10.82;7.85;;;4.90;41.20;;;;;;5047447;28;20478;-73
2021/01/31 12:18:14;;;;;;;12.25;9.70;;;5.20;18.20;;;;;;5043325;28;20324;-73
2021/01/31 12:20:42;;;;;;;10.80;8.17;;;5.40;1.00;;;;;;5047439;28;20204;-73
2021/01/31 12:23:09;;;;;;;10.47;8.70;;;5.50;1.00;;;;;;5043485;28;20494;-75
2021/01/31 12:25:36;;;;;;;9.77;8.10;;;5.50;1.00;;;;;;5047753;28;20483;-74
2021/01/31 12:28:04;;;;;;;10.88;9.73;;;5.40;1.00;;;;;;5047867;28;21145;-74
2021/01/31 12:30:32;;;;;;;11.70;9.50;;;5.40;1.00;;;;;;5048325;28;20286;-74
2021/01/31 12:33:03;;;;;;;13.52;9.50;;;5.30;1.00;;;;;;5036472;28;20209;-73
2021/01/31 12:35:31;;;;;;;12.35;9.52;;;5.10;1.00;;;;;;5047882;28;20207;-74
2021/01/31 12:37:59;;;;;;;12.93;10.07;;;5.20;1.00;;;;;;5041507;28;20239;-74
2021/01/31 12:40:29;;;;;;;11.60;9.17;;;5.10;1.00;;;;;;5042035;28;20239;-74
2021/01/31 12:42:56;;;;;;;11.90;9.25;;;5.00;1.00;;;;;;5042584;28;20482;-75
2021/01/31 12:45:24;;;;;;;10.73;9.48;;;4.70;6.10;;;;;;5059843;28;20280;-74
2021/01/31 12:47:52;;;;;;;12.90;11.60;;;4.70;7.30;;;;;;5040604;28;20537;-74
2021/01/31 12:50:22;;;;;;;12.30;10.68;;;4.60;29.20;;;;;;5041608;28;20471;-74
2021/01/31 12:52:49;;;;;;;11.55;9.35;;;4.60;35.30;;;;;;5039353;28;20204;-73
2021/01/31 12:55:18;;;;;;;11.40;9.27;;;4.80;29.10;;;;;;5038302;28;20203;-72
2021/01/31 12:57:45;;;;;;;12.13;10.15;;;4.80;22.10;;;;;;5033815;28;20231;-74
2021/01/31 13:00:15;;;;;;;11.98;10.50;;;4.80;14.40;;;;;;5026183;28;20213;-74
2021/01/31 13:02:43;;;;;;;9.75;8.68;;;4.80;19.70;;;;;;5037914;28;20226;-74
2021/01/31 13:05:12;;;;;;;12.07;8.77;;;4.60;17.20;;;;;;5047463;28;20589;-74
2021/01/31 13:07:39;;;;;;;12.20;9.18;;;4.50;37.10;;;;;;5043422;28;20236;-74
2021/01/31 13:10:08;;;;;;;10.93;9.48;;;4.50;57.70;;;;;;5027194;28;20215;-74
2021/01/31 13:12:41;;;;;;;13.60;10.25;;;4.40;57.20;;;;;;5027984;28;20217;-75
2021/01/31 13:15:11;;;;;;;13.32;10.00;;;4.30;70.30;;;;;;5030117;28;20210;-74
2021/01/31 13:17:52;;;;;;;12.77;9.82;;;4.20;88.10;;;;;;5048229;28;20232;-74
2021/01/31 13:20:19;;;;;;;12.75;9.85;;;4.20;92.90;;;;;;5045402;28;20204;-74
2021/01/31 13:22:47;;;;;;;12.52;9.07;;;4.30;97.80;;;;;;5047613;28;20615;-74
2021/01/31 13:25:14;;;;;;;12.30;9.93;;;4.40;98.20;;;;;;5046086;28;20745;-74
2021/01/31 13:27:44;;;;;;;12.17;9.53;;;4.50;98.10;;;;;;5048126;28;20237;-74
2021/01/31 13:30:15;;;;;;;13.60;9.50;;;4.70;89.00;;;;;;5043356;28;20470;-75